createdAt,value
2022-12-15T00:01:09.028Z,-3.30
2022-12-15T00:04:13.861Z,-3.20
2022-12-15T00:07:18.494Z,-3.20
2022-12-15T00:10:24.051Z,-3.20
2022-12-15T00:13:31.931Z,-3.10
2022-12-15T00:16:37.265Z,-3.10
2022-12-15T00:19:41.741Z,-3.00
2022-12-15T00:22:46.609Z,-3.00
2022-12-15T00:25:51.384Z,-2.90
2022-12-15T00:28:57.807Z,-2.90
2022-12-15T00:32:02.651Z,-2.80
2022-12-15T00:35:07.301Z,-2.80
2022-12-15T00:38:12.577Z,-2.80
2022-12-15T00:41:00.224Z,-2.70
2022-12-15T00:43:49.916Z,-2.70
2022-12-15T00:46:54.666Z,-2.70
2022-12-15T00:49:59.391Z,-2.60
2022-12-15T00:53:04.387Z,-2.60
2022-12-15T00:56:08.894Z,-2.60
2022-12-15T00:59:15.199Z,-2.60
2022-12-15T01:02:21.590Z,-2.60
2022-12-15T01:05:26.779Z,-2.60
2022-12-15T01:08:31.316Z,-2.60
2022-12-15T01:11:36.199Z,-2.60
2022-12-15T01:14:42.779Z,-2.60
2022-12-15T01:17:47.672Z,-2.60
2022-12-15T01:20:35.476Z,-2.60
2022-12-15T01:23:23.304Z,-2.60
2022-12-15T01:26:10.876Z,-2.70
2022-12-15T01:28:58.227Z,-2.70
2022-12-15T01:31:49.904Z,-2.80
2022-12-15T01:34:37.837Z,-2.80
2022-12-15T01:37:25.237Z,-2.80
2022-12-15T01:40:33.558Z,-2.80
2022-12-15T01:43:23.612Z,-2.80
2022-12-15T01:46:12.689Z,-2.80
2022-12-15T01:49:12.986Z,-2.80
2022-12-15T01:52:02.752Z,-2.60
2022-12-15T01:54:53.505Z,-2.60
2022-12-15T01:57:41.869Z,-2.60
2022-12-15T02:00:29.718Z,-2.70
2022-12-15T02:03:17.224Z,-2.80
2022-12-15T02:06:07.446Z,-2.80
2022-12-15T02:09:00.218Z,-2.80
2022-12-15T02:12:00.675Z,-2.80
2022-12-15T02:15:00.038Z,-2.90
2022-12-15T02:17:58.190Z,-2.90
2022-12-15T02:20:53.401Z,-2.90
2022-12-15T02:24:11.676Z,-2.80
2022-12-15T02:27:30.015Z,-2.80
2022-12-15T02:30:22.861Z,-2.90
2022-12-15T02:33:21.834Z,-2.90
2022-12-15T02:36:17.795Z,-2.90
2022-12-15T02:39:06.469Z,-2.90
2022-12-15T02:41:54.018Z,-3.00
2022-12-15T02:44:46.529Z,-3.00
2022-12-15T02:47:46.108Z,-3.00
2022-12-15T02:50:53.604Z,-3.00
2022-12-15T02:54:15.703Z,-3.00
2022-12-15T02:57:08.734Z,-3.00
2022-12-15T03:00:01.813Z,-3.00
2022-12-15T03:02:53.984Z,-3.10
2022-12-15T03:05:41.712Z,-2.90
2022-12-15T03:08:30.050Z,-2.90
2022-12-15T03:11:17.409Z,-2.90
2022-12-15T03:14:05.351Z,-3.00
2022-12-15T03:16:52.992Z,-3.00
2022-12-15T03:19:42.223Z,-3.00
2022-12-15T03:22:29.858Z,-3.10
2022-12-15T03:25:17.446Z,-3.10
2022-12-15T03:28:04.983Z,-3.10
2022-12-15T03:30:52.347Z,-3.10
2022-12-15T03:33:41.055Z,-3.00
2022-12-15T03:36:30.050Z,-3.10
2022-12-15T03:39:17.310Z,-3.00
2022-12-15T03:42:04.762Z,-2.90
2022-12-15T03:44:52.184Z,-2.90
2022-12-15T03:47:42.648Z,-3.00
2022-12-15T03:50:30.972Z,-3.00
2022-12-15T03:53:19.883Z,-3.00
2022-12-15T03:56:08.279Z,-3.00
2022-12-15T03:58:56.125Z,-3.00
2022-12-15T04:01:49.148Z,-3.00
2022-12-15T04:04:37.180Z,-3.00
2022-12-15T04:07:24.467Z,-3.00
2022-12-15T04:10:14.213Z,-3.00
2022-12-15T04:13:02.657Z,-3.00
2022-12-15T04:15:50.089Z,-3.00
2022-12-15T04:18:37.789Z,-3.00
2022-12-15T04:21:25.353Z,-3.00
2022-12-15T04:24:30.026Z,-3.00
2022-12-15T04:27:36.658Z,-2.90
2022-12-15T04:30:41.361Z,-2.80
2022-12-15T04:33:46.078Z,-2.80
2022-12-15T04:36:52.218Z,-2.80
2022-12-15T04:39:59.713Z,-2.90
2022-12-15T04:43:06.852Z,-2.90
2022-12-15T04:46:11.898Z,-2.80
2022-12-15T04:49:16.781Z,-2.80
2022-12-15T04:52:22.062Z,-2.80
2022-12-15T04:55:27.742Z,-2.70
2022-12-15T04:58:34.166Z,-2.70
2022-12-15T05:01:38.946Z,-2.80
2022-12-15T05:04:43.945Z,-2.80
2022-12-15T05:07:49.065Z,-2.80
2022-12-15T05:10:53.747Z,-2.80
2022-12-15T05:14:00.180Z,-2.80
2022-12-15T05:17:04.917Z,-2.70
2022-12-15T05:20:09.594Z,-2.60
2022-12-15T05:23:15.490Z,-2.60
2022-12-15T05:26:20.323Z,-2.60
2022-12-15T05:29:27.396Z,-2.60
2022-12-15T05:32:14.719Z,-2.60
2022-12-15T05:35:02.432Z,-2.60
2022-12-15T05:37:50.122Z,-2.70
2022-12-15T05:40:37.420Z,-2.70
2022-12-15T05:43:26.669Z,-2.60
2022-12-15T05:46:15.969Z,-2.60
2022-12-15T05:49:05.005Z,-2.70
2022-12-15T05:51:52.695Z,-2.70
2022-12-15T05:54:40.466Z,-2.70
2022-12-15T05:57:28.103Z,-2.70
2022-12-15T06:00:16.453Z,-2.70
2022-12-15T06:03:05.506Z,-2.70
2022-12-15T06:05:56.450Z,-2.60
2022-12-15T06:08:44.654Z,-2.60
2022-12-15T06:11:32.426Z,-2.60
2022-12-15T06:14:20.105Z,-2.60
2022-12-15T06:17:07.813Z,-2.60
2022-12-15T06:19:56.575Z,-2.60
2022-12-15T06:22:49.546Z,-2.60
2022-12-15T06:25:37.388Z,-2.60
2022-12-15T06:28:25.218Z,-2.50
2022-12-15T06:31:14.592Z,-2.50
2022-12-15T06:34:04.688Z,-2.50
2022-12-15T06:36:53.851Z,-2.50
2022-12-15T06:39:41.221Z,-2.50
2022-12-15T06:42:28.513Z,-2.50
2022-12-15T06:45:16.051Z,-2.50
2022-12-15T06:48:04.001Z,-2.50
2022-12-15T06:50:52.208Z,-2.50
2022-12-15T06:53:42.700Z,-2.40
2022-12-15T06:56:34.112Z,-2.40
2022-12-15T06:59:22.404Z,-2.40
2022-12-15T07:02:17.982Z,-2.40
2022-12-15T07:05:09.371Z,-2.40
2022-12-15T07:07:56.694Z,-2.40
2022-12-15T07:10:45.991Z,-2.40
2022-12-15T07:13:33.804Z,-2.30
2022-12-15T07:16:23.475Z,-2.30
2022-12-15T07:19:13.504Z,-2.30
2022-12-15T07:22:01.542Z,-2.30
2022-12-15T07:24:48.888Z,-2.30
2022-12-15T07:27:37.672Z,-2.20
2022-12-15T07:30:25.118Z,-2.20
2022-12-15T07:33:12.507Z,-2.20
2022-12-15T07:36:00.663Z,-2.20
2022-12-15T07:38:50.669Z,-2.10
2022-12-15T07:41:40.430Z,-2.00
2022-12-15T07:44:29.717Z,-2.00
2022-12-15T07:47:17.450Z,-1.90
2022-12-15T07:50:06.011Z,-1.90
2022-12-15T07:52:53.691Z,-1.90
2022-12-15T07:56:05.556Z,-1.80
2022-12-15T07:58:49.538Z,-1.80
2022-12-15T08:01:38.741Z,-1.80
2022-12-15T08:04:26.831Z,-1.80
2022-12-15T08:07:14.530Z,-1.80
2022-12-15T08:10:01.871Z,-1.80
2022-12-15T08:12:49.731Z,-1.80
2022-12-15T08:15:38.578Z,-1.70
2022-12-15T08:18:27.518Z,-1.60
2022-12-15T08:21:15.386Z,-1.60
2022-12-15T08:24:03.184Z,-1.60
2022-12-15T08:26:51.222Z,-1.50
2022-12-15T08:29:54.049Z,-1.60
2022-12-15T08:32:41.555Z,-1.60
2022-12-15T08:35:55.255Z,-1.60
2022-12-15T08:38:39.341Z,-1.60
2022-12-15T08:41:29.028Z,-1.60
2022-12-15T08:44:17.095Z,-1.60
2022-12-15T08:47:04.855Z,-1.50
2022-12-15T08:49:53.077Z,-1.40
2022-12-15T08:52:55.217Z,-1.30
2022-12-15T08:55:50.125Z,-1.30
2022-12-15T08:58:38.320Z,-1.20
2022-12-15T09:01:27.342Z,-1.20
2022-12-15T09:04:15.543Z,-1.10
2022-12-15T09:07:03.099Z,-1.00
2022-12-15T09:09:52.050Z,-1.00
2022-12-15T09:12:39.601Z,-1.00
2022-12-15T09:15:59.865Z,-0.90
2022-12-15T09:18:35.815Z,-0.90
2022-12-15T09:21:26.768Z,-0.90
2022-12-15T09:24:23.252Z,-0.90
2022-12-15T09:27:18.381Z,-0.90
2022-12-15T09:30:07.186Z,-0.70
2022-12-15T09:32:54.814Z,-0.80
2022-12-15T09:35:42.209Z,-0.80
2022-12-15T09:38:30.073Z,-0.70
2022-12-15T09:41:24.180Z,-0.70
2022-12-15T09:44:15.596Z,-0.70
2022-12-15T09:47:14.430Z,-0.70
2022-12-15T09:50:05.278Z,-0.60
2022-12-15T09:52:56.843Z,-0.50
2022-12-15T09:55:46.835Z,-0.50
2022-12-15T09:58:46.126Z,-0.50
2022-12-15T10:01:46.753Z,-0.50
2022-12-15T10:04:44.640Z,-0.40
2022-12-15T10:07:38.126Z,-0.40
2022-12-15T10:10:32.584Z,-0.30
2022-12-15T10:13:26.123Z,-0.30
2022-12-15T10:16:22.422Z,-0.20
2022-12-15T10:19:17.793Z,-0.10
2022-12-15T10:22:05.714Z,-0.10
2022-12-15T10:25:10.997Z,-0.10
2022-12-15T10:28:17.656Z,-0.10
2022-12-15T10:31:17.798Z,0.00
2022-12-15T10:34:12.691Z,0.00
2022-12-15T10:37:00.881Z,0.00
2022-12-15T10:39:51.020Z,0.00
2022-12-15T10:42:48.443Z,-0.10
2022-12-15T10:45:39.999Z,-0.10
2022-12-15T10:48:27.730Z,-0.20
2022-12-15T10:51:29.121Z,-0.30
2022-12-15T10:54:18.385Z,-0.30
2022-12-15T10:57:18.442Z,-0.50
2022-12-15T11:00:27.335Z,-0.60
2022-12-15T11:03:24.106Z,-0.60
2022-12-15T11:06:18.137Z,-0.50
2022-12-15T11:09:28.437Z,-0.50
2022-12-15T11:12:37.540Z,-0.40
2022-12-15T11:15:50.733Z,-0.50
2022-12-15T11:18:43.537Z,-0.60
2022-12-15T11:21:34.116Z,-0.50
2022-12-15T11:24:30.767Z,-0.30
2022-12-15T11:27:26.110Z,-0.20
2022-12-15T11:30:15.885Z,-0.20
2022-12-15T11:33:04.211Z,-0.20
2022-12-15T11:36:09.655Z,0.00
2022-12-15T11:39:04.255Z,0.20
2022-12-15T11:42:00.219Z,0.30
2022-12-15T11:44:58.715Z,0.40
2022-12-15T11:47:51.136Z,0.60
2022-12-15T11:50:55.115Z,0.70
2022-12-15T11:54:05.039Z,0.80
2022-12-15T11:57:00.770Z,1.00
2022-12-15T12:00:03.364Z,1.10
2022-12-15T12:03:16.567Z,1.20
2022-12-15T12:06:12.948Z,1.20
2022-12-15T12:09:19.626Z,1.20
2022-12-15T12:12:16.832Z,1.30
2022-12-15T12:15:18.975Z,1.30
2022-12-15T12:18:12.953Z,1.30
2022-12-15T12:21:06.074Z,1.30
2022-12-15T12:23:59.147Z,1.20
2022-12-15T12:26:48.465Z,1.10
2022-12-15T12:29:45.309Z,1.10
2022-12-15T12:32:44.516Z,1.10
2022-12-15T12:35:39.301Z,1.10
2022-12-15T12:38:32.568Z,0.90
2022-12-15T12:41:32.299Z,0.80
2022-12-15T12:44:30.297Z,0.80
2022-12-15T12:47:25.582Z,0.80
2022-12-15T12:50:20.429Z,0.90
2022-12-15T12:53:26.175Z,0.80
2022-12-15T12:56:39.681Z,0.80
2022-12-15T12:59:37.766Z,0.80
2022-12-15T13:02:55.697Z,0.80
2022-12-15T13:05:45.209Z,0.70
2022-12-15T13:08:52.271Z,0.70
2022-12-15T13:12:00.837Z,0.70
2022-12-15T13:14:51.933Z,0.90
2022-12-15T13:17:45.484Z,1.00
2022-12-15T13:20:38.405Z,1.10
2022-12-15T13:23:42.657Z,1.10
2022-12-15T13:26:32.547Z,1.00
2022-12-15T13:29:23.826Z,1.10
2022-12-15T13:32:32.718Z,1.40
2022-12-15T13:35:27.403Z,1.70
2022-12-15T13:38:19.794Z,1.90
2022-12-15T13:41:23.860Z,1.80
2022-12-15T13:44:16.916Z,1.80
2022-12-15T13:47:11.788Z,1.90
2022-12-15T13:50:03.003Z,2.00
2022-12-15T13:56:15.342Z,2.00
2022-12-15T13:59:08.014Z,1.80
2022-12-15T14:01:56.056Z,1.40
2022-12-15T14:04:43.487Z,1.10
2022-12-15T14:07:31.148Z,0.80
2022-12-15T14:10:24.940Z,0.50
2022-12-15T14:13:16.439Z,0.30
2022-12-15T14:16:08.428Z,0.10
2022-12-15T14:19:11.478Z,-0.10
2022-12-15T14:21:59.725Z,-0.40
2022-12-15T14:24:49.938Z,-0.60
2022-12-15T14:27:39.501Z,-0.90
2022-12-15T14:30:29.606Z,-1.20
2022-12-15T14:33:19.707Z,-1.40
2022-12-15T14:36:11.268Z,-1.70
2022-12-15T14:39:03.028Z,-1.90
2022-12-15T14:41:52.652Z,-2.10
2022-12-15T14:44:49.969Z,-2.30
2022-12-15T14:47:39.040Z,-2.60
2022-12-15T14:50:27.438Z,-2.70
2022-12-15T14:53:23.855Z,-2.90
2022-12-15T14:56:30.525Z,-3.00
2022-12-15T14:59:20.903Z,-3.20
2022-12-15T15:02:16.121Z,-3.40
2022-12-15T15:05:07.805Z,-3.50
2022-12-15T15:07:57.660Z,-3.60
2022-12-15T15:10:45.382Z,-3.70
2022-12-15T15:13:40.764Z,-3.90
2022-12-15T15:16:29.192Z,-4.00
2022-12-15T15:19:24.797Z,-4.10
2022-12-15T15:22:28.585Z,-4.20
2022-12-15T15:25:39.961Z,-4.30
2022-12-15T15:28:30.731Z,-4.50
2022-12-15T15:31:36.676Z,-4.60
2022-12-15T15:34:29.144Z,-4.70
2022-12-15T15:37:22.958Z,-4.80
2022-12-15T15:40:15.891Z,-4.90
2022-12-15T15:43:08.938Z,-5.10
2022-12-15T15:46:06.394Z,-5.20
2022-12-15T15:48:57.105Z,-5.30
2022-12-15T15:51:46.046Z,-5.40
2022-12-15T15:54:36.307Z,-5.40
2022-12-15T15:57:24.688Z,-5.50
2022-12-15T16:00:21.629Z,-5.60
2022-12-15T16:03:09.341Z,-5.70
2022-12-15T16:05:57.398Z,-5.80
2022-12-15T16:08:47.963Z,-5.90
2022-12-15T16:11:36.529Z,-6.00
2022-12-15T16:14:24.298Z,-6.10
2022-12-15T16:17:20.528Z,-6.20
2022-12-15T16:20:09.679Z,-6.20
2022-12-15T16:23:00.741Z,-6.30
2022-12-15T16:25:52.922Z,-6.30
2022-12-15T16:28:40.743Z,-6.40
2022-12-15T16:31:35.645Z,-6.50
2022-12-15T16:34:27.170Z,-6.50
2022-12-15T16:37:26.190Z,-6.60
2022-12-15T16:40:19.358Z,-6.70
2022-12-15T16:43:15.873Z,-6.80
2022-12-15T16:46:03.571Z,-6.80
2022-12-15T16:48:51.907Z,-6.80
2022-12-15T16:51:41.626Z,-6.80
2022-12-15T16:54:32.339Z,-6.80
2022-12-15T16:57:19.810Z,-6.90
2022-12-15T17:00:20.186Z,-7.00
2022-12-15T17:03:07.779Z,-7.00
2022-12-15T17:05:57.568Z,-7.10
2022-12-15T17:08:47.763Z,-7.20
2022-12-15T17:11:35.160Z,-7.20
2022-12-15T17:14:23.363Z,-7.20
2022-12-15T17:17:15.570Z,-7.20
2022-12-15T17:23:16.818Z,-7.30
2022-12-15T17:26:27.968Z,-7.40
2022-12-15T17:29:17.688Z,-7.40
2022-12-15T17:32:07.047Z,-7.40
2022-12-15T17:34:56.057Z,-7.50
2022-12-15T17:37:44.896Z,-7.50
2022-12-15T17:40:32.226Z,-7.50
2022-12-15T17:43:27.156Z,-7.50
2022-12-15T17:46:17.487Z,-7.60
2022-12-15T17:49:06.217Z,-7.60
2022-12-15T17:51:55.952Z,-7.60
2022-12-15T17:54:43.481Z,-7.50
2022-12-15T17:57:32.106Z,-7.50
2022-12-15T18:00:22.960Z,-7.40
2022-12-15T18:03:10.925Z,-7.50
2022-12-15T18:05:58.809Z,-7.50
2022-12-15T18:08:47.946Z,-7.40
2022-12-15T18:11:35.525Z,-7.40
2022-12-15T18:14:23.477Z,-7.40
2022-12-15T18:17:11.111Z,-7.40
2022-12-15T18:19:58.842Z,-7.40
2022-12-15T18:22:47.042Z,-7.40
2022-12-15T18:25:35.896Z,-7.40
2022-12-15T18:28:25.428Z,-7.40
2022-12-15T18:31:21.472Z,-7.40
2022-12-15T18:34:13.924Z,-7.30
2022-12-15T18:37:01.797Z,-7.30
2022-12-15T18:39:50.769Z,-7.30
2022-12-15T18:42:40.742Z,-7.30
2022-12-15T18:45:28.718Z,-7.30
2022-12-15T18:48:18.330Z,-7.20
2022-12-15T18:51:17.555Z,-7.20
2022-12-15T18:54:05.283Z,-7.20
2022-12-15T18:56:53.109Z,-7.30
2022-12-15T18:59:43.701Z,-7.30
2022-12-15T19:02:31.559Z,-7.30
2022-12-15T19:05:29.410Z,-7.40
2022-12-15T19:08:24.630Z,-7.40
2022-12-15T19:11:18.323Z,-7.40
2022-12-15T19:14:31.764Z,-7.50
2022-12-15T19:17:40.127Z,-7.60
2022-12-15T19:20:45.374Z,-7.60
2022-12-15T19:23:33.759Z,-7.60
2022-12-15T19:26:21.419Z,-7.60
2022-12-15T19:29:18.090Z,-7.60
2022-12-15T19:32:05.735Z,-7.60
2022-12-15T19:34:54.622Z,-7.60
2022-12-15T19:37:44.493Z,-7.60
2022-12-15T19:40:34.498Z,-7.60
2022-12-15T19:43:23.508Z,-7.50
2022-12-15T19:46:14.238Z,-7.50
2022-12-15T19:49:01.559Z,-7.50
2022-12-15T19:51:50.369Z,-7.50
2022-12-15T19:54:37.969Z,-7.40
2022-12-15T19:57:25.587Z,-7.40
2022-12-15T20:00:17.648Z,-7.30
2022-12-15T20:03:05.523Z,-7.30
2022-12-15T20:05:55.554Z,-7.20
2022-12-15T20:08:46.381Z,-7.10
2022-12-15T20:11:34.877Z,-7.00
2022-12-15T20:14:22.421Z,-7.00
2022-12-15T20:17:10.175Z,-6.90
2022-12-15T20:19:57.587Z,-6.80
2022-12-15T20:22:47.372Z,-6.80
2022-12-15T20:25:38.233Z,-6.70
2022-12-15T20:28:28.077Z,-6.70
2022-12-15T20:31:17.765Z,-6.60
2022-12-15T20:34:05.448Z,-6.60
2022-12-15T20:36:52.958Z,-6.50
2022-12-15T20:39:41.652Z,-6.40
2022-12-15T20:42:31.006Z,-6.30
2022-12-15T20:45:20.984Z,-6.30
2022-12-15T20:48:13.325Z,-6.20
2022-12-15T20:51:04.501Z,-6.20
2022-12-15T20:53:58.434Z,-6.20
2022-12-15T20:56:47.768Z,-6.20
2022-12-15T20:59:36.677Z,-6.10
2022-12-15T21:02:25.254Z,-6.10
2022-12-15T21:05:20.788Z,-6.20
2022-12-15T21:08:15.574Z,-6.10
2022-12-15T21:11:11.759Z,-6.10
2022-12-15T21:14:04.213Z,-6.10
2022-12-15T21:16:53.927Z,-6.10
2022-12-15T21:19:42.621Z,-6.10
2022-12-15T21:22:30.888Z,-6.00
2022-12-15T21:25:24.840Z,-6.00
2022-12-15T21:28:12.922Z,-6.00
2022-12-15T21:31:01.851Z,-5.90
2022-12-15T21:33:51.007Z,-5.90
2022-12-15T21:36:41.326Z,-5.90
2022-12-15T21:39:33.635Z,-5.90
2022-12-15T21:42:22.159Z,-5.90
2022-12-15T21:45:15.780Z,-5.80
2022-12-15T21:48:20.508Z,-5.80
2022-12-15T21:51:13.941Z,-5.80
2022-12-15T21:54:02.687Z,-5.80
2022-12-15T21:56:51.078Z,-5.80
2022-12-15T21:59:40.068Z,-5.70
2022-12-15T22:02:28.464Z,-5.70
2022-12-15T22:05:19.024Z,-5.70
2022-12-15T22:08:15.734Z,-5.60
2022-12-15T22:11:03.484Z,-5.60
2022-12-15T22:13:52.518Z,-5.60
2022-12-15T22:16:43.162Z,-5.50
2022-12-15T22:19:30.660Z,-5.50
2022-12-15T22:22:18.437Z,-5.50
2022-12-15T22:25:09.385Z,-5.50
2022-12-15T22:27:57.880Z,-5.40
2022-12-15T22:30:46.071Z,-5.40
2022-12-15T22:33:33.650Z,-5.40
2022-12-15T22:36:21.506Z,-5.40
2022-12-15T22:39:11.105Z,-5.40
2022-12-15T22:42:01.288Z,-5.30
2022-12-15T22:44:48.992Z,-5.30
2022-12-15T22:47:38.657Z,-5.30
2022-12-15T22:50:27.555Z,-5.30
2022-12-15T22:53:15.768Z,-5.30
2022-12-15T22:56:07.906Z,-5.20
2022-12-15T22:59:01.005Z,-5.20
2022-12-15T23:01:48.708Z,-5.20
2022-12-15T23:04:36.785Z,-5.20
2022-12-15T23:07:24.178Z,-5.20
2022-12-15T23:10:31.016Z,-5.10
2022-12-15T23:13:19.415Z,-5.10
2022-12-15T23:16:22.206Z,-5.10
2022-12-15T23:19:23.521Z,-5.10
2022-12-15T23:22:11.271Z,-5.10
2022-12-15T23:24:58.753Z,-5.00
2022-12-15T23:27:45.961Z,-5.00
2022-12-15T23:30:33.198Z,-5.00
2022-12-15T23:33:22.710Z,-5.00
2022-12-15T23:36:11.020Z,-5.00
2022-12-15T23:38:59.049Z,-5.00
2022-12-15T23:41:46.339Z,-4.90
2022-12-15T23:44:33.920Z,-4.90
2022-12-15T23:47:21.662Z,-4.80
2022-12-15T23:50:11.306Z,-4.80
2022-12-15T23:52:58.897Z,-4.80
2022-12-15T23:55:46.267Z,-4.70
2022-12-15T23:58:33.907Z,-4.70
